sensor_id;sensor_type;location;lat;lon;timestamp;pressure;altitude;pressure_sealevel;temperature;humidity
50268;BME280;36153;50.960;6.220;2023-03-19T00:00:35;100166.28;;;15.57;56.60
50268;BME280;36153;50.960;6.220;2023-03-19T00:03:37;100162.06;;;15.46;56.71
50268;BME280;36153;50.960;6.220;2023-03-19T00:06:38;100156.91;;;15.39;56.85
50268;BME280;36153;50.960;6.220;2023-03-19T00:09:41;100159.66;;;15.28;56.64
50268;BME280;36153;50.960;6.220;2023-03-19T00:12:43;100163.19;;;15.27;56.86
50268;BME280;36153;50.960;6.220;2023-03-19T00:15:45;100154.66;;;15.09;57.31
50268;BME280;36153;50.960;6.220;2023-03-19T00:18:47;100154.88;;;14.94;57.66
50268;BME280;36153;50.960;6.220;2023-03-19T00:21:49;100157.66;;;14.80;58.19
50268;BME280;36153;50.960;6.220;2023-03-19T00:24:50;100163.75;;;14.79;58.71
50268;BME280;36153;50.960;6.220;2023-03-19T00:27:53;100155.97;;;14.73;58.58
50268;BME280;36153;50.960;6.220;2023-03-19T00:30:56;100151.78;;;14.55;59.22
50268;BME280;36153;50.960;6.220;2023-03-19T00:33:58;100149.25;;;14.44;59.54
50268;BME280;36153;50.960;6.220;2023-03-19T00:37:03;100145.81;;;14.37;60.00
50268;BME280;36153;50.960;6.220;2023-03-19T00:40:04;100147.56;;;14.38;60.16
50268;BME280;36153;50.960;6.220;2023-03-19T00:43:05;100143.00;;;14.56;60.11
50268;BME280;36153;50.960;6.220;2023-03-19T00:46:06;100144.75;;;14.63;59.87
50268;BME280;36153;50.960;6.220;2023-03-19T00:49:12;100148.25;;;14.59;59.71
50268;BME280;36153;50.960;6.220;2023-03-19T00:52:13;100148.28;;;14.52;60.05
50268;BME280;36153;50.960;6.220;2023-03-19T00:55:13;100153.53;;;14.52;60.31
50268;BME280;36153;50.960;6.220;2023-03-19T00:58:13;100155.28;;;14.52;60.25
50268;BME280;36153;50.960;6.220;2023-03-19T01:01:16;100156.94;;;14.61;60.22
50268;BME280;36153;50.960;6.220;2023-03-19T01:04:17;100150.75;;;14.73;60.08
50268;BME280;36153;50.960;6.220;2023-03-19T01:07:18;100146.25;;;14.82;59.85
50268;BME280;36153;50.960;6.220;2023-03-19T01:10:20;100153.91;;;14.99;59.45
50268;BME280;36153;50.960;6.220;2023-03-19T01:13:21;100155.59;;;15.05;59.14
50268;BME280;36153;50.960;6.220;2023-03-19T01:16:22;100156.41;;;15.10;58.49
50268;BME280;36153;50.960;6.220;2023-03-19T01:19:22;100159.81;;;15.15;58.11
50268;BME280;36153;50.960;6.220;2023-03-19T01:22:23;100165.88;;;15.21;57.73
50268;BME280;36153;50.960;6.220;2023-03-19T01:25:23;100156.25;;;15.23;57.40
50268;BME280;36153;50.960;6.220;2023-03-19T01:28:23;100162.34;;;15.23;57.20
50268;BME280;36153;50.960;6.220;2023-03-19T01:31:24;100158.00;;;15.22;57.08
50268;BME280;36153;50.960;6.220;2023-03-19T01:34:24;100159.72;;;15.25;57.34
50268;BME280;36153;50.960;6.220;2023-03-19T01:37:25;100155.44;;;15.17;57.59
50268;BME280;36153;50.960;6.220;2023-03-19T01:40:25;100155.38;;;15.22;57.52
50268;BME280;36153;50.960;6.220;2023-03-19T01:43:28;100161.44;;;15.26;57.22
50268;BME280;36153;50.960;6.220;2023-03-19T01:46:36;100165.91;;;15.19;56.89
50268;BME280;36153;50.960;6.220;2023-03-19T01:49:37;100158.84;;;15.24;56.84
50268;BME280;36153;50.960;6.220;2023-03-19T01:52:39;100163.16;;;15.30;56.84
50268;BME280;36153;50.960;6.220;2023-03-19T01:55:40;100151.72;;;15.35;56.65
50268;BME280;36153;50.960;6.220;2023-03-19T01:58:43;100152.53;;;15.41;56.47
50268;BME280;36153;50.960;6.220;2023-03-19T02:01:53;100149.13;;;15.31;56.66
50268;BME280;36153;50.960;6.220;2023-03-19T02:05:02;100147.47;;;15.24;56.75
50268;BME280;36153;50.960;6.220;2023-03-19T02:08:05;100149.13;;;15.31;56.44
50268;BME280;36153;50.960;6.220;2023-03-19T02:11:06;100149.16;;;15.29;56.39
50268;BME280;36153;50.960;6.220;2023-03-19T02:14:08;100146.56;;;15.26;56.56
50268;BME280;36153;50.960;6.220;2023-03-19T02:17:09;100141.41;;;15.22;56.72
50268;BME280;36153;50.960;6.220;2023-03-19T02:26:37;100137.97;;;15.16;56.91
50268;BME280;36153;50.960;6.220;2023-03-19T02:29:37;100135.28;;;15.21;56.43
50268;BME280;36153;50.960;6.220;2023-03-19T02:32:38;100140.50;;;15.21;56.56
50268;BME280;36153;50.960;6.220;2023-03-19T02:35:39;100135.34;;;15.16;56.35
50268;BME280;36153;50.960;6.220;2023-03-19T02:38:41;100137.19;;;15.08;56.58
50268;BME280;36153;50.960;6.220;2023-03-19T02:41:43;100137.34;;;14.96;56.97
50268;BME280;36153;50.960;6.220;2023-03-19T02:44:43;100139.09;;;14.97;56.65
50268;BME280;36153;50.960;6.220;2023-03-19T02:47:43;100137.44;;;14.90;56.77
50268;BME280;36153;50.960;6.220;2023-03-19T02:50:44;100141.84;;;14.84;56.62
50268;BME280;36153;50.960;6.220;2023-03-19T02:53:44;100140.22;;;14.76;56.91
50268;BME280;36153;50.960;6.220;2023-03-19T02:56:45;100143.84;;;14.64;56.99
50268;BME280;36153;50.960;6.220;2023-03-19T02:59:45;100145.59;;;14.60;57.23
50268;BME280;36153;50.960;6.220;2023-03-19T03:02:46;100144.66;;;14.69;56.75
50268;BME280;36153;50.960;6.220;2023-03-19T03:05:46;100141.22;;;14.62;56.77
50268;BME280;36153;50.960;6.220;2023-03-19T03:08:47;100150.88;;;14.57;57.29
50268;BME280;36153;50.960;6.220;2023-03-19T03:11:47;100146.63;;;14.45;57.81
50268;BME280;36153;50.960;6.220;2023-03-19T03:14:48;100150.94;;;14.51;57.63
50268;BME280;36153;50.960;6.220;2023-03-19T03:17:48;100146.59;;;14.48;57.50
50268;BME280;36153;50.960;6.220;2023-03-19T03:20:48;100150.88;;;14.57;56.89
50268;BME280;36153;50.960;6.220;2023-03-19T03:23:49;100144.84;;;14.50;57.72
50268;BME280;36153;50.960;6.220;2023-03-19T03:26:50;100149.25;;;14.45;57.49
50268;BME280;36153;50.960;6.220;2023-03-19T03:29:50;100147.47;;;14.49;57.50
50268;BME280;36153;50.960;6.220;2023-03-19T03:32:51;100149.97;;;14.61;56.86
50268;BME280;36153;50.960;6.220;2023-03-19T03:35:51;100156.06;;;14.63;57.43
50268;BME280;36153;50.960;6.220;2023-03-19T03:38:52;100157.94;;;14.49;58.20
50268;BME280;36153;50.960;6.220;2023-03-19T03:41:53;100156.13;;;14.57;57.57
50268;BME280;36153;50.960;6.220;2023-03-19T03:44:53;100159.66;;;14.53;57.48
50268;BME280;36153;50.960;6.220;2023-03-19T03:47:53;100156.94;;;14.61;57.70
50268;BME280;36153;50.960;6.220;2023-03-19T03:50:54;100163.06;;;14.63;57.48
50268;BME280;36153;50.960;6.220;2023-03-19T03:53:54;100166.53;;;14.65;57.43
50268;BME280;36153;50.960;6.220;2023-03-19T03:56:55;100170.03;;;14.61;57.69
50268;BME280;36153;50.960;6.220;2023-03-19T03:59:55;100156.06;;;14.65;57.77
50268;BME280;36153;50.960;6.220;2023-03-19T04:02:55;100174.34;;;14.68;57.77
50268;BME280;36153;50.960;6.220;2023-03-19T04:05:56;100172.59;;;14.70;57.80
50268;BME280;36153;50.960;6.220;2023-03-19T04:08:57;100171.59;;;14.80;57.51
50268;BME280;36153;50.960;6.220;2023-03-19T04:11:57;100170.75;;;14.80;57.08
50268;BME280;36153;50.960;6.220;2023-03-19T04:14:57;100174.25;;;14.77;57.69
50268;BME280;36153;50.960;6.220;2023-03-19T04:17:58;100168.88;;;14.90;57.92
50268;BME280;36153;50.960;6.220;2023-03-19T04:20:58;100186.66;;;14.57;58.98
50268;BME280;36153;50.960;6.220;2023-03-19T04:23:59;100174.44;;;14.56;59.75
50268;BME280;36153;50.960;6.220;2023-03-19T04:26:59;100189.25;;;14.61;59.10
50268;BME280;36153;50.960;6.220;2023-03-19T04:30:00;100189.41;;;14.43;60.85
50268;BME280;36153;50.960;6.220;2023-03-19T04:33:01;100191.09;;;14.50;60.48
50268;BME280;36153;50.960;6.220;2023-03-19T04:36:02;100193.56;;;14.70;60.05
50268;BME280;36153;50.960;6.220;2023-03-19T04:39:03;100194.38;;;14.77;59.40
50268;BME280;36153;50.960;6.220;2023-03-19T04:42:04;100193.38;;;14.85;59.32
50268;BME280;36153;50.960;6.220;2023-03-19T04:45:05;100202.09;;;14.88;59.08
50268;BME280;36153;50.960;6.220;2023-03-19T04:48:06;100201.31;;;14.79;59.15
50268;BME280;36153;50.960;6.220;2023-03-19T04:51:07;100204.88;;;14.75;59.86
50268;BME280;36153;50.960;6.220;2023-03-19T04:54:08;100202.38;;;14.57;60.58
50268;BME280;36153;50.960;6.220;2023-03-19T04:57:09;100203.19;;;14.66;60.65
50268;BME280;36153;50.960;6.220;2023-03-19T05:00:10;100208.44;;;14.66;60.31
50268;BME280;36153;50.960;6.220;2023-03-19T05:03:10;100215.38;;;14.71;60.01
50268;BME280;36153;50.960;6.220;2023-03-19T05:06:11;100212.72;;;14.75;59.66
50268;BME280;36153;50.960;6.220;2023-03-19T05:09:11;100214.41;;;14.79;59.55
50268;BME280;36153;50.960;6.220;2023-03-19T05:12:12;100225.72;;;14.83;59.09
50268;BME280;36153;50.960;6.220;2023-03-19T05:15:13;100227.41;;;14.89;59.13
50268;BME280;36153;50.960;6.220;2023-03-19T05:18:14;100217.72;;;14.97;59.55
50268;BME280;36153;50.960;6.220;2023-03-19T05:21:14;100225.47;;;15.08;59.20
50268;BME280;36153;50.960;6.220;2023-03-19T05:24:15;100228.13;;;15.06;58.83
50268;BME280;36153;50.960;6.220;2023-03-19T05:27:15;100230.69;;;15.09;58.66
50268;BME280;36153;50.960;6.220;2023-03-19T05:30:15;100226.28;;;15.14;58.28
50268;BME280;36153;50.960;6.220;2023-03-19T05:33:17;100228.22;;;14.95;58.22
50268;BME280;36153;50.960;6.220;2023-03-19T05:36:17;100235.13;;;15.02;58.52
50268;BME280;36153;50.960;6.220;2023-03-19T05:39:18;100234.28;;;15.02;58.95
50268;BME280;36153;50.960;6.220;2023-03-19T05:42:18;100232.38;;;15.15;58.05
50268;BME280;36153;50.960;6.220;2023-03-19T05:45:19;100237.63;;;15.13;58.54
50268;BME280;36153;50.960;6.220;2023-03-19T05:48:19;100250.66;;;15.23;58.34
50268;BME280;36153;50.960;6.220;2023-03-19T05:51:20;100259.50;;;15.12;58.71
50268;BME280;36153;50.960;6.220;2023-03-19T05:54:20;100249.78;;;15.21;58.58
50268;BME280;36153;50.960;6.220;2023-03-19T05:57:20;100256.97;;;15.05;59.43
50268;BME280;36153;50.960;6.220;2023-03-19T06:00:21;100260.47;;;15.04;58.50
50268;BME280;36153;50.960;6.220;2023-03-19T06:03:22;100257.91;;;14.96;59.71
50268;BME280;36153;50.960;6.220;2023-03-19T06:06:22;100254.38;;;15.00;60.00
50268;BME280;36153;50.960;6.220;2023-03-19T06:09:23;100257.81;;;15.07;60.11
50268;BME280;36153;50.960;6.220;2023-03-19T06:12:23;100253.56;;;14.95;59.80
50268;BME280;36153;50.960;6.220;2023-03-19T06:15:24;100258.78;;;14.98;59.96
50268;BME280;36153;50.960;6.220;2023-03-19T06:18:24;100269.13;;;15.12;59.17
50268;BME280;36153;50.960;6.220;2023-03-19T06:21:25;100268.22;;;15.14;59.42
50268;BME280;36153;50.960;6.220;2023-03-19T06:24:28;100269.00;;;15.19;59.16
50268;BME280;36153;50.960;6.220;2023-03-19T06:27:29;100267.41;;;15.08;60.11
50268;BME280;36153;50.960;6.220;2023-03-19T06:30:30;100268.06;;;15.25;59.44
50268;BME280;36153;50.960;6.220;2023-03-19T06:33:31;100266.19;;;15.38;59.42
50268;BME280;36153;50.960;6.220;2023-03-19T06:36:32;100269.75;;;15.31;59.65
50268;BME280;36153;50.960;6.220;2023-03-19T06:39:33;100256.56;;;15.39;59.40
50268;BME280;36153;50.960;6.220;2023-03-19T06:42:34;100269.63;;;15.43;59.34
50268;BME280;36153;50.960;6.220;2023-03-19T06:45:34;100269.75;;;15.31;60.05
50268;BME280;36153;50.960;6.220;2023-03-19T06:48:35;100278.53;;;15.30;60.15
50268;BME280;36153;50.960;6.220;2023-03-19T06:51:36;100272.22;;;15.43;59.79
50268;BME280;36153;50.960;6.220;2023-03-19T06:54:36;100270.34;;;15.56;59.50
50268;BME280;36153;50.960;6.220;2023-03-19T06:57:37;100280.03;;;15.51;60.06
50268;BME280;36153;50.960;6.220;2023-03-19T07:00:37;100289.66;;;15.49;60.95
50268;BME280;36153;50.960;6.220;2023-03-19T07:03:37;100288.44;;;15.76;59.72
50268;BME280;36153;50.960;6.220;2023-03-19T07:06:38;100290.19;;;15.80;59.89
50268;BME280;36153;50.960;6.220;2023-03-19T07:09:38;100304.19;;;15.79;59.33
50268;BME280;36153;50.960;6.220;2023-03-19T07:12:38;100296.22;;;15.87;59.54
50268;BME280;36153;50.960;6.220;2023-03-19T07:15:39;100304.81;;;15.97;59.09
50268;BME280;36153;50.960;6.220;2023-03-19T07:18:40;100309.72;;;16.21;59.05
50268;BME280;36153;50.960;6.220;2023-03-19T07:21:40;100316.69;;;16.26;58.29
50268;BME280;36153;50.960;6.220;2023-03-19T07:24:41;100313.84;;;16.38;58.46
50268;BME280;36153;50.960;6.220;2023-03-19T07:27:41;100310.09;;;16.53;58.21
50268;BME280;36153;50.960;6.220;2023-03-19T07:30:41;100308.00;;;16.75;57.92
50268;BME280;36153;50.960;6.220;2023-03-19T07:33:42;100313.91;;;16.91;57.34
50268;BME280;36153;50.960;6.220;2023-03-19T07:36:42;100323.69;;;16.81;57.20
50268;BME280;36153;50.960;6.220;2023-03-19T07:39:42;100314.25;;;16.68;57.71
50268;BME280;36153;50.960;6.220;2023-03-19T07:42:43;100319.31;;;16.80;57.87
50268;BME280;36153;50.960;6.220;2023-03-19T07:45:43;100312.13;;;16.92;57.02
50268;BME280;36153;50.960;6.220;2023-03-19T07:48:44;100315.59;;;16.94;56.72
50268;BME280;36153;50.960;6.220;2023-03-19T07:51:44;100311.34;;;16.83;56.82
50268;BME280;36153;50.960;6.220;2023-03-19T07:54:44;100319.09;;;16.94;56.75
50268;BME280;36153;50.960;6.220;2023-03-19T07:57:45;100319.28;;;17.32;56.34
50268;BME280;36153;50.960;6.220;2023-03-19T08:00:45;100309.56;;;17.79;55.37
50268;BME280;36153;50.960;6.220;2023-03-19T08:03:46;100325.66;;;17.64;54.93
50268;BME280;36153;50.960;6.220;2023-03-19T08:06:47;100313.47;;;17.60;54.99
50268;BME280;36153;50.960;6.220;2023-03-19T08:09:48;100325.63;;;18.07;54.80
50268;BME280;36153;50.960;6.220;2023-03-19T08:12:48;100325.56;;;18.12;53.85
50268;BME280;36153;50.960;6.220;2023-03-19T08:15:49;100317.84;;;18.03;53.86
50268;BME280;36153;50.960;6.220;2023-03-19T08:18:50;100331.53;;;18.56;53.10
50268;BME280;36153;50.960;6.220;2023-03-19T08:21:50;100330.03;;;18.82;52.15
50268;BME280;36153;50.960;6.220;2023-03-19T08:24:51;100332.16;;;18.68;52.29
50268;BME280;36153;50.960;6.220;2023-03-19T08:27:51;100334.56;;;18.00;52.76
50268;BME280;36153;50.960;6.220;2023-03-19T08:30:52;100337.06;;;18.08;52.78
50268;BME280;36153;50.960;6.220;2023-03-19T08:33:52;100340.41;;;18.15;53.00
50268;BME280;36153;50.960;6.220;2023-03-19T08:36:55;100332.88;;;17.98;52.87
50268;BME280;36153;50.960;6.220;2023-03-19T08:39:55;100336.09;;;18.11;53.31
50268;BME280;36153;50.960;6.220;2023-03-19T08:42:55;100342.88;;;17.80;52.98
50268;BME280;36153;50.960;6.220;2023-03-19T08:45:56;100343.59;;;17.88;53.51
50268;BME280;36153;50.960;6.220;2023-03-19T08:49:00;100339.00;;;18.00;53.15
50268;BME280;36153;50.960;6.220;2023-03-19T08:52:00;100353.38;;;17.82;53.38
50268;BME280;36153;50.960;6.220;2023-03-19T08:55:01;100344.59;;;17.81;53.15
50268;BME280;36153;50.960;6.220;2023-03-19T08:58:01;100351.75;;;17.76;53.45
50268;BME280;36153;50.960;6.220;2023-03-19T09:01:06;100345.94;;;18.04;52.91
50268;BME280;36153;50.960;6.220;2023-03-19T09:04:07;100358.25;;;18.02;53.01
50268;BME280;36153;50.960;6.220;2023-03-19T09:07:08;100364.03;;;18.19;52.63
50268;BME280;36153;50.960;6.220;2023-03-19T09:10:14;100366.59;;;18.22;52.01
50268;BME280;36153;50.960;6.220;2023-03-19T09:13:15;100369.06;;;18.29;52.34
50268;BME280;36153;50.960;6.220;2023-03-19T09:16:15;100377.34;;;18.88;51.02
50268;BME280;36153;50.960;6.220;2023-03-19T09:19:15;100368.47;;;18.92;50.60
50268;BME280;36153;50.960;6.220;2023-03-19T09:22:16;100381.75;;;19.24;49.43
50268;BME280;36153;50.960;6.220;2023-03-19T09:25:19;100381.75;;;19.55;48.30
50268;BME280;36153;50.960;6.220;2023-03-19T09:28:56;100376.75;;;19.46;47.88
50268;BME280;36153;50.960;6.220;2023-03-19T09:31:58;100375.13;;;20.05;47.71
50268;BME280;36153;50.960;6.220;2023-03-19T09:34:59;100370.59;;;20.65;46.31
50268;BME280;36153;50.960;6.220;2023-03-19T09:38:00;100370.56;;;20.67;46.15
50268;BME280;36153;50.960;6.220;2023-03-19T09:47:33;100371.94;;;20.52;45.94
50268;BME280;36153;50.960;6.220;2023-03-19T09:50:33;100380.75;;;19.92;47.43
50268;BME280;36153;50.960;6.220;2023-03-19T09:56:53;100388.28;;;19.09;48.46
50268;BME280;36153;50.960;6.220;2023-03-19T09:59:54;100392.31;;;18.88;49.82
50268;BME280;36153;50.960;6.220;2023-03-19T10:03:05;100387.88;;;18.90;50.00
50268;BME280;36153;50.960;6.220;2023-03-19T10:16:19;100398.94;;;18.29;51.85
50268;BME280;36153;50.960;6.220;2023-03-19T10:19:26;100398.00;;;18.32;51.98
50268;BME280;36153;50.960;6.220;2023-03-19T10:22:46;100403.81;;;18.07;52.53
50268;BME280;36153;50.960;6.220;2023-03-19T10:25:52;100405.53;;;18.08;52.90
50268;BME280;36153;50.960;6.220;2023-03-19T10:35:20;100398.44;;;18.51;51.78
50268;BME280;36153;50.960;6.220;2023-03-19T10:38:24;100403.34;;;18.66;51.40
50268;BME280;36153;50.960;6.220;2023-03-19T10:41:44;100409.34;;;18.73;51.69
50268;BME280;36153;50.960;6.220;2023-03-19T10:44:55;100403.97;;;19.15;50.49
50268;BME280;36153;50.960;6.220;2023-03-19T10:48:00;100399.94;;;19.00;49.33
50268;BME280;36153;50.960;6.220;2023-03-19T10:51:03;100402.72;;;18.96;48.29
50268;BME280;36153;50.960;6.220;2023-03-19T10:54:21;100415.56;;;19.08;48.18
50268;BME280;36153;50.960;6.220;2023-03-19T10:57:26;100414.13;;;18.57;48.82
50268;BME280;36153;50.960;6.220;2023-03-19T11:00:28;100412.09;;;18.68;49.55
50268;BME280;36153;50.960;6.220;2023-03-19T11:03:35;100418.19;;;19.42;48.54
50268;BME280;36153;50.960;6.220;2023-03-19T11:06:37;100416.88;;;19.59;47.99
50268;BME280;36153;50.960;6.220;2023-03-19T11:09:44;100420.13;;;20.02;47.07
50268;BME280;36153;50.960;6.220;2023-03-19T11:12:57;100415.66;;;20.04;46.74
50268;BME280;36153;50.960;6.220;2023-03-19T11:15:59;100424.78;;;19.93;46.58
50268;BME280;36153;50.960;6.220;2023-03-19T11:19:00;100426.28;;;20.02;46.63
50268;BME280;36153;50.960;6.220;2023-03-19T11:25:39;100422.50;;;20.41;45.35
50268;BME280;36153;50.960;6.220;2023-03-19T11:28:41;100426.31;;;20.89;44.43
50268;BME280;36153;50.960;6.220;2023-03-19T11:32:11;100417.09;;;21.27;43.44
50268;BME280;36153;50.960;6.220;2023-03-19T11:35:22;100415.69;;;21.17;44.47
50268;BME280;36153;50.960;6.220;2023-03-19T11:41:57;100419.03;;;20.69;45.44
50268;BME280;36153;50.960;6.220;2023-03-19T11:45:23;100427.88;;;20.68;43.68
50268;BME280;36153;50.960;6.220;2023-03-19T11:52:10;100414.34;;;20.77;42.92
50268;BME280;36153;50.960;6.220;2023-03-19T11:55:24;100418.38;;;20.60;43.98
50268;BME280;36153;50.960;6.220;2023-03-19T12:02:13;100419.47;;;20.23;45.36
50268;BME280;36153;50.960;6.220;2023-03-19T12:05:45;100412.38;;;19.95;45.47
50268;BME280;36153;50.960;6.220;2023-03-19T12:12:20;100418.97;;;19.79;45.89
50268;BME280;36153;50.960;6.220;2023-03-19T12:28:49;100410.94;;;21.00;44.26
50268;BME280;36153;50.960;6.220;2023-03-19T12:35:04;100413.25;;;21.36;42.35
50268;BME280;36153;50.960;6.220;2023-03-19T12:38:15;100417.31;;;21.46;42.43
50268;BME280;36153;50.960;6.220;2023-03-19T12:41:23;100407.78;;;21.91;40.69
50268;BME280;36153;50.960;6.220;2023-03-19T12:44:46;100412.63;;;22.04;40.53
50268;BME280;36153;50.960;6.220;2023-03-19T12:47:55;100408.94;;;21.84;39.88
50268;BME280;36153;50.960;6.220;2023-03-19T12:51:03;100415.28;;;21.28;41.41
50268;BME280;36153;50.960;6.220;2023-03-19T12:54:20;100405.06;;;22.16;40.60
50268;BME280;36153;50.960;6.220;2023-03-19T13:00:43;100408.88;;;21.10;41.63
50268;BME280;36153;50.960;6.220;2023-03-19T13:03:57;100413.28;;;20.54;43.08
50268;BME280;36153;50.960;6.220;2023-03-19T13:07:08;100414.25;;;19.92;44.74
50268;BME280;36153;50.960;6.220;2023-03-19T13:10:16;100417.16;;;20.42;43.49
50268;BME280;36153;50.960;6.220;2023-03-19T13:19:51;100422.66;;;20.35;42.36
50268;BME280;36153;50.960;6.220;2023-03-19T13:22:57;100416.72;;;20.28;41.91
50268;BME280;36153;50.960;6.220;2023-03-19T13:26:00;100412.13;;;20.05;40.55
50268;BME280;36153;50.960;6.220;2023-03-19T13:29:14;100414.50;;;20.14;40.41
50268;BME280;36153;50.960;6.220;2023-03-19T13:32:39;100412.03;;;20.38;40.63
50268;BME280;36153;50.960;6.220;2023-03-19T13:35:50;100408.53;;;20.36;40.05
50268;BME280;36153;50.960;6.220;2023-03-19T13:38:51;100402.88;;;20.48;39.41
50268;BME280;36153;50.960;6.220;2023-03-19T13:45:00;100410.03;;;21.01;38.59
50268;BME280;36153;50.960;6.220;2023-03-19T13:51:28;100414.06;;;21.13;38.16
50268;BME280;36153;50.960;6.220;2023-03-19T13:54:34;100409.44;;;21.18;38.28
50268;BME280;36153;50.960;6.220;2023-03-19T13:57:37;100415.06;;;21.09;36.93
50268;BME280;36153;50.960;6.220;2023-03-19T14:03:55;100414.41;;;20.75;38.18
50268;BME280;36153;50.960;6.220;2023-03-19T14:07:17;100413.81;;;20.66;37.55
50268;BME280;36153;50.960;6.220;2023-03-19T14:10:24;100416.63;;;20.31;38.66
50268;BME280;36153;50.960;6.220;2023-03-19T14:13:36;100420.28;;;20.27;38.98
50268;BME280;36153;50.960;6.220;2023-03-19T14:16:41;100424.63;;;19.98;39.52
50268;BME280;36153;50.960;6.220;2023-03-19T14:19:42;100423.94;;;19.91;40.17
50268;BME280;36153;50.960;6.220;2023-03-19T14:26:24;100431.63;;;20.31;40.87
50268;BME280;36153;50.960;6.220;2023-03-19T14:29:29;100437.09;;;20.24;40.56
50268;BME280;36153;50.960;6.220;2023-03-19T14:32:36;100431.63;;;20.31;40.93
50268;BME280;36153;50.960;6.220;2023-03-19T14:35:41;100437.13;;;20.23;40.94
50268;BME280;36153;50.960;6.220;2023-03-19T14:38:50;100433.44;;;19.99;42.16
50268;BME280;36153;50.960;6.220;2023-03-19T14:42:05;100444.34;;;19.86;42.36
50268;BME280;36153;50.960;6.220;2023-03-19T14:48:48;100448.50;;;19.27;47.27
50268;BME280;36153;50.960;6.220;2023-03-19T14:52:19;100447.47;;;18.99;45.80
50268;BME280;36153;50.960;6.220;2023-03-19T14:55:21;100450.81;;;18.25;47.88
50268;BME280;36153;50.960;6.220;2023-03-19T14:58:22;100451.72;;;18.24;48.19
50268;BME280;36153;50.960;6.220;2023-03-19T15:01:23;100468.50;;;17.73;50.35
50268;BME280;36153;50.960;6.220;2023-03-19T15:04:25;100470.84;;;17.40;52.29
50268;BME280;36153;50.960;6.220;2023-03-19T15:07:36;100466.69;;;17.26;54.81
50268;BME280;36153;50.960;6.220;2023-03-19T15:17:34;100475.06;;;16.96;54.98
50268;BME280;36153;50.960;6.220;2023-03-19T15:20:38;100484.78;;;16.89;56.19
50268;BME280;36153;50.960;6.220;2023-03-19T15:23:44;100475.06;;;16.96;54.82
50268;BME280;36153;50.960;6.220;2023-03-19T15:26:45;100478.34;;;17.12;55.54
50268;BME280;36153;50.960;6.220;2023-03-19T15:29:46;100468.41;;;17.28;54.59
50268;BME280;36153;50.960;6.220;2023-03-19T15:32:47;100476.47;;;17.19;56.19
50268;BME280;36153;50.960;6.220;2023-03-19T15:35:47;100471.38;;;17.08;56.57
50268;BME280;36153;50.960;6.220;2023-03-19T15:38:56;100479.09;;;17.17;57.18
50268;BME280;36153;50.960;6.220;2023-03-19T15:41:59;100477.22;;;17.27;57.19
50268;BME280;36153;50.960;6.220;2023-03-19T15:45:06;100476.72;;;17.02;56.99
50268;BME280;36153;50.960;6.220;2023-03-19T15:48:16;100482.06;;;16.97;56.69
50268;BME280;36153;50.960;6.220;2023-03-19T15:51:19;100490.97;;;16.88;56.41
50268;BME280;36153;50.960;6.220;2023-03-19T15:54:21;100494.63;;;16.75;56.73
50268;BME280;36153;50.960;6.220;2023-03-19T15:57:22;100493.63;;;16.85;56.85
50268;BME280;36153;50.960;6.220;2023-03-19T16:00:24;100493.38;;;17.02;56.16
50268;BME280;36153;50.960;6.220;2023-03-19T16:03:33;100498.25;;;17.26;55.78
50268;BME280;36153;50.960;6.220;2023-03-19T16:06:36;100486.75;;;17.34;55.16
50268;BME280;36153;50.960;6.220;2023-03-19T16:09:38;100489.16;;;17.45;55.04
50268;BME280;36153;50.960;6.220;2023-03-19T16:12:39;100497.34;;;17.28;54.40
50268;BME280;36153;50.960;6.220;2023-03-19T16:15:44;100494.44;;;16.87;55.07
50268;BME280;36153;50.960;6.220;2023-03-19T16:18:50;100493.53;;;16.92;54.89
50268;BME280;36153;50.960;6.220;2023-03-19T16:21:51;100483.66;;;17.06;54.25
50268;BME280;36153;50.960;6.220;2023-03-19T16:24:51;100492.03;;;17.31;53.55
50268;BME280;36153;50.960;6.220;2023-03-19T16:27:52;100498.88;;;17.43;53.47
50268;BME280;36153;50.960;6.220;2023-03-19T16:30:53;100497.72;;;17.60;52.58
50268;BME280;36153;50.960;6.220;2023-03-19T16:33:53;100503.13;;;17.50;52.16
50268;BME280;36153;50.960;6.220;2023-03-19T16:36:56;100504.88;;;17.51;52.65
50268;BME280;36153;50.960;6.220;2023-03-19T16:39:59;100515.28;;;17.57;52.55
50268;BME280;36153;50.960;6.220;2023-03-19T16:43:13;100513.56;;;17.56;51.87
50268;BME280;36153;50.960;6.220;2023-03-19T16:46:14;100514.41;;;17.58;51.72
50268;BME280;36153;50.960;6.220;2023-03-19T16:49:15;100517.91;;;17.57;51.96
50268;BME280;36153;50.960;6.220;2023-03-19T16:52:19;100516.59;;;17.32;52.55
50268;BME280;36153;50.960;6.220;2023-03-19T16:55:24;100536.94;;;17.20;53.58
50268;BME280;36153;50.960;6.220;2023-03-19T16:58:38;100539.59;;;17.17;54.20
50268;BME280;36153;50.960;6.220;2023-03-19T17:01:42;100544.06;;;17.14;54.16
50268;BME280;36153;50.960;6.220;2023-03-19T17:04:43;100549.41;;;17.09;55.15
50268;BME280;36153;50.960;6.220;2023-03-19T17:07:44;100554.69;;;17.06;54.52
50268;BME280;36153;50.960;6.220;2023-03-19T17:10:46;100569.69;;;16.98;54.66
50268;BME280;36153;50.960;6.220;2023-03-19T17:13:48;100572.38;;;16.95;54.46
50268;BME280;36153;50.960;6.220;2023-03-19T17:16:48;100570.75;;;16.84;54.69
50268;BME280;36153;50.960;6.220;2023-03-19T17:19:53;100573.41;;;16.80;54.80
50268;BME280;36153;50.960;6.220;2023-03-19T17:22:53;100583.03;;;16.82;54.62
50268;BME280;36153;50.960;6.220;2023-03-19T17:25:55;100591.72;;;16.87;54.80
50268;BME280;36153;50.960;6.220;2023-03-19T17:28:55;100596.22;;;16.79;55.07
50268;BME280;36153;50.960;6.220;2023-03-19T17:31:57;100596.31;;;16.73;55.45
50268;BME280;36153;50.960;6.220;2023-03-19T17:35:05;100602.50;;;16.67;55.87
50268;BME280;36153;50.960;6.220;2023-03-19T17:38:14;100608.69;;;16.60;56.27